sensor_id;sensor_type;location;lat;lon;timestamp;P1;durP1;ratioP1;P2;durP2;ratioP2
13349;SDS011;6744;53.190;6.576;2022-12-08T00:00:26;1.57;;;0.50;;
13349;SDS011;6744;53.190;6.576;2022-12-08T00:02:52;1.60;;;0.67;;
13349;SDS011;6744;53.190;6.576;2022-12-08T00:05:17;1.53;;;0.80;;
13349;SDS011;6744;53.190;6.576;2022-12-08T00:08:01;1.03;;;0.70;;
13349;SDS011;6744;53.190;6.576;2022-12-08T00:10:45;1.40;;;0.70;;
13349;SDS011;6744;53.190;6.576;2022-12-08T00:13:10;1.07;;;0.70;;
13349;SDS011;6744;53.190;6.576;2022-12-08T00:15:35;1.33;;;0.60;;
13349;SDS011;6744;53.190;6.576;2022-12-08T00:18:01;0.80;;;0.60;;
13349;SDS011;6744;53.190;6.576;2022-12-08T00:20:26;2.47;;;0.70;;
13349;SDS011;6744;53.190;6.576;2022-12-08T00:22:51;3.13;;;0.80;;
13349;SDS011;6744;53.190;6.576;2022-12-08T00:25:17;2.53;;;0.80;;
13349;SDS011;6744;53.190;6.576;2022-12-08T00:27:42;1.87;;;0.80;;
13349;SDS011;6744;53.190;6.576;2022-12-08T00:30:08;2.90;;;0.80;;
13349;SDS011;6744;53.190;6.576;2022-12-08T00:32:33;4.10;;;0.70;;
13349;SDS011;6744;53.190;6.576;2022-12-08T00:34:59;1.43;;;0.50;;
13349;SDS011;6744;53.190;6.576;2022-12-08T00:37:24;1.87;;;0.50;;
13349;SDS011;6744;53.190;6.576;2022-12-08T00:39:49;2.00;;;0.60;;
13349;SDS011;6744;53.190;6.576;2022-12-08T00:42:15;2.63;;;0.83;;
13349;SDS011;6744;53.190;6.576;2022-12-08T00:44:41;3.23;;;0.70;;
13349;SDS011;6744;53.190;6.576;2022-12-08T00:47:08;3.13;;;0.70;;
13349;SDS011;6744;53.190;6.576;2022-12-08T00:49:33;2.93;;;0.70;;
13349;SDS011;6744;53.190;6.576;2022-12-08T00:51:59;3.80;;;0.80;;
13349;SDS011;6744;53.190;6.576;2022-12-08T00:54:24;4.60;;;0.90;;
13349;SDS011;6744;53.190;6.576;2022-12-08T00:56:50;2.00;;;0.63;;
13349;SDS011;6744;53.190;6.576;2022-12-08T00:59:15;1.30;;;0.70;;
13349;SDS011;6744;53.190;6.576;2022-12-08T01:01:42;2.03;;;0.80;;
13349;SDS011;6744;53.190;6.576;2022-12-08T01:04:11;2.57;;;0.80;;
13349;SDS011;6744;53.190;6.576;2022-12-08T01:06:39;2.27;;;0.70;;
13349;SDS011;6744;53.190;6.576;2022-12-08T01:09:05;1.97;;;0.60;;
13349;SDS011;6744;53.190;6.576;2022-12-08T01:11:31;4.30;;;0.83;;
13349;SDS011;6744;53.190;6.576;2022-12-08T01:13:57;1.40;;;0.67;;
13349;SDS011;6744;53.190;6.576;2022-12-08T01:16:27;1.73;;;0.70;;
13349;SDS011;6744;53.190;6.576;2022-12-08T01:18:53;1.90;;;0.60;;
13349;SDS011;6744;53.190;6.576;2022-12-08T01:21:19;1.80;;;0.70;;
13349;SDS011;6744;53.190;6.576;2022-12-08T01:23:45;3.40;;;0.63;;
13349;SDS011;6744;53.190;6.576;2022-12-08T01:26:11;1.87;;;0.90;;
13349;SDS011;6744;53.190;6.576;2022-12-08T01:28:38;2.00;;;0.63;;
13349;SDS011;6744;53.190;6.576;2022-12-08T01:31:04;1.73;;;0.60;;
13349;SDS011;6744;53.190;6.576;2022-12-08T01:33:33;1.00;;;0.60;;
13349;SDS011;6744;53.190;6.576;2022-12-08T01:36:01;1.60;;;0.80;;
13349;SDS011;6744;53.190;6.576;2022-12-08T01:38:28;1.60;;;0.63;;
13349;SDS011;6744;53.190;6.576;2022-12-08T01:40:53;3.07;;;1.10;;
13349;SDS011;6744;53.190;6.576;2022-12-08T01:43:19;1.37;;;0.70;;
13349;SDS011;6744;53.190;6.576;2022-12-08T01:45:45;1.80;;;0.67;;
13349;SDS011;6744;53.190;6.576;2022-12-08T01:48:19;1.03;;;0.50;;
13349;SDS011;6744;53.190;6.576;2022-12-08T01:50:50;2.07;;;0.70;;
13349;SDS011;6744;53.190;6.576;2022-12-08T01:53:17;2.03;;;0.60;;
13349;SDS011;6744;53.190;6.576;2022-12-08T01:55:47;1.30;;;0.53;;
13349;SDS011;6744;53.190;6.576;2022-12-08T02:00:41;1.40;;;0.67;;
13349;SDS011;6744;53.190;6.576;2022-12-08T02:03:08;2.17;;;0.60;;
13349;SDS011;6744;53.190;6.576;2022-12-08T02:05:37;2.17;;;0.50;;
13349;SDS011;6744;53.190;6.576;2022-12-08T02:08:08;1.20;;;0.50;;
13349;SDS011;6744;53.190;6.576;2022-12-08T02:10:36;1.07;;;0.40;;
13349;SDS011;6744;53.190;6.576;2022-12-08T02:13:02;1.40;;;0.70;;
13349;SDS011;6744;53.190;6.576;2022-12-08T02:21:15;1.33;;;0.40;;
13349;SDS011;6744;53.190;6.576;2022-12-08T02:37:49;0.70;;;0.30;;
13349;SDS011;6744;53.190;6.576;2022-12-08T02:40:54;0.30;;;0.30;;
13349;SDS011;6744;53.190;6.576;2022-12-08T02:43:34;1.33;;;0.57;;
13349;SDS011;6744;53.190;6.576;2022-12-08T02:46:02;0.83;;;0.50;;
13349;SDS011;6744;53.190;6.576;2022-12-08T02:48:31;1.10;;;0.50;;
13349;SDS011;6744;53.190;6.576;2022-12-08T02:50:57;0.40;;;0.40;;
13349;SDS011;6744;53.190;6.576;2022-12-08T02:53:22;1.13;;;0.60;;
13349;SDS011;6744;53.190;6.576;2022-12-08T03:01:11;0.40;;;0.30;;
13349;SDS011;6744;53.190;6.576;2022-12-08T03:04:04;1.27;;;0.30;;
13349;SDS011;6744;53.190;6.576;2022-12-08T03:06:58;0.63;;;0.20;;
13349;SDS011;6744;53.190;6.576;2022-12-08T03:09:51;0.30;;;0.20;;
13349;SDS011;6744;53.190;6.576;2022-12-08T03:14:46;0.63;;;0.20;;
13349;SDS011;6744;53.190;6.576;2022-12-08T03:17:12;0.50;;;0.20;;
13349;SDS011;6744;53.190;6.576;2022-12-08T03:19:38;1.23;;;0.30;;
13349;SDS011;6744;53.190;6.576;2022-12-08T03:22:05;0.87;;;0.30;;
13349;SDS011;6744;53.190;6.576;2022-12-08T03:24:32;0.67;;;0.30;;
13349;SDS011;6744;53.190;6.576;2022-12-08T03:27:01;0.73;;;0.30;;
13349;SDS011;6744;53.190;6.576;2022-12-08T03:29:28;0.73;;;0.40;;
13349;SDS011;6744;53.190;6.576;2022-12-08T03:31:59;0.97;;;0.37;;
13349;SDS011;6744;53.190;6.576;2022-12-08T03:34:28;0.30;;;0.30;;
13349;SDS011;6744;53.190;6.576;2022-12-08T03:36:54;0.87;;;0.50;;
13349;SDS011;6744;53.190;6.576;2022-12-08T03:39:19;0.73;;;0.50;;
13349;SDS011;6744;53.190;6.576;2022-12-08T03:41:45;0.93;;;0.50;;
13349;SDS011;6744;53.190;6.576;2022-12-08T03:44:11;0.90;;;0.50;;
13349;SDS011;6744;53.190;6.576;2022-12-08T03:46:36;1.90;;;0.60;;
13349;SDS011;6744;53.190;6.576;2022-12-08T03:49:01;2.40;;;0.67;;
13349;SDS011;6744;53.190;6.576;2022-12-08T03:51:27;0.83;;;0.40;;
13349;SDS011;6744;53.190;6.576;2022-12-08T03:53:52;0.40;;;0.40;;
13349;SDS011;6744;53.190;6.576;2022-12-08T03:56:22;0.90;;;0.43;;
13349;SDS011;6744;53.190;6.576;2022-12-08T03:58:52;0.97;;;0.50;;
13349;SDS011;6744;53.190;6.576;2022-12-08T04:01:18;0.40;;;0.30;;
13349;SDS011;6744;53.190;6.576;2022-12-08T04:03:43;1.10;;;0.40;;
13349;SDS011;6744;53.190;6.576;2022-12-08T04:06:09;0.47;;;0.30;;
13349;SDS011;6744;53.190;6.576;2022-12-08T04:08:34;2.70;;;0.40;;
13349;SDS011;6744;53.190;6.576;2022-12-08T04:10:59;0.67;;;0.40;;
13349;SDS011;6744;53.190;6.576;2022-12-08T04:13:25;0.90;;;0.47;;
13349;SDS011;6744;53.190;6.576;2022-12-08T04:15:50;0.77;;;0.37;;
13349;SDS011;6744;53.190;6.576;2022-12-08T04:18:15;0.87;;;0.37;;
13349;SDS011;6744;53.190;6.576;2022-12-08T04:20:41;0.80;;;0.40;;
13349;SDS011;6744;53.190;6.576;2022-12-08T04:23:07;0.60;;;0.30;;
13349;SDS011;6744;53.190;6.576;2022-12-08T04:25:33;0.70;;;0.40;;
13349;SDS011;6744;53.190;6.576;2022-12-08T04:27:59;0.83;;;0.40;;
13349;SDS011;6744;53.190;6.576;2022-12-08T04:30:25;0.83;;;0.53;;
13349;SDS011;6744;53.190;6.576;2022-12-08T04:32:50;1.27;;;0.50;;
13349;SDS011;6744;53.190;6.576;2022-12-08T04:35:15;0.90;;;0.30;;
13349;SDS011;6744;53.190;6.576;2022-12-08T04:37:41;1.33;;;0.50;;
13349;SDS011;6744;53.190;6.576;2022-12-08T04:40:08;0.47;;;0.30;;
13349;SDS011;6744;53.190;6.576;2022-12-08T04:42:34;0.60;;;0.40;;
13349;SDS011;6744;53.190;6.576;2022-12-08T04:44:59;1.33;;;0.30;;
13349;SDS011;6744;53.190;6.576;2022-12-08T04:47:24;2.03;;;0.40;;
13349;SDS011;6744;53.190;6.576;2022-12-08T04:49:50;0.47;;;0.30;;
13349;SDS011;6744;53.190;6.576;2022-12-08T04:52:15;0.70;;;0.50;;
13349;SDS011;6744;53.190;6.576;2022-12-08T04:54:40;1.33;;;0.43;;
13349;SDS011;6744;53.190;6.576;2022-12-08T04:57:06;1.97;;;0.30;;
13349;SDS011;6744;53.190;6.576;2022-12-08T04:59:31;0.60;;;0.20;;
13349;SDS011;6744;53.190;6.576;2022-12-08T05:01:56;0.20;;;0.20;;
13349;SDS011;6744;53.190;6.576;2022-12-08T05:04:22;1.00;;;0.33;;
13349;SDS011;6744;53.190;6.576;2022-12-08T05:06:47;0.30;;;0.20;;
13349;SDS011;6744;53.190;6.576;2022-12-08T05:09:12;0.80;;;0.30;;
13349;SDS011;6744;53.190;6.576;2022-12-08T05:11:37;0.63;;;0.40;;
13349;SDS011;6744;53.190;6.576;2022-12-08T05:14:07;1.80;;;0.50;;
13349;SDS011;6744;53.190;6.576;2022-12-08T05:16:34;0.30;;;0.30;;
13349;SDS011;6744;53.190;6.576;2022-12-08T05:19:00;0.67;;;0.30;;
13349;SDS011;6744;53.190;6.576;2022-12-08T05:21:26;0.70;;;0.30;;
13349;SDS011;6744;53.190;6.576;2022-12-08T05:23:51;0.23;;;0.20;;
13349;SDS011;6744;53.190;6.576;2022-12-08T05:26:16;0.67;;;0.20;;
13349;SDS011;6744;53.190;6.576;2022-12-08T05:28:42;0.47;;;0.20;;
13349;SDS011;6744;53.190;6.576;2022-12-08T05:31:07;0.37;;;0.33;;
13349;SDS011;6744;53.190;6.576;2022-12-08T05:33:33;0.50;;;0.20;;
13349;SDS011;6744;53.190;6.576;2022-12-08T05:35:58;1.13;;;0.30;;
13349;SDS011;6744;53.190;6.576;2022-12-08T05:38:23;1.40;;;0.30;;
13349;SDS011;6744;53.190;6.576;2022-12-08T05:40:48;0.60;;;0.30;;
13349;SDS011;6744;53.190;6.576;2022-12-08T05:43:14;1.17;;;0.20;;
13349;SDS011;6744;53.190;6.576;2022-12-08T05:45:39;1.60;;;0.30;;
13349;SDS011;6744;53.190;6.576;2022-12-08T05:48:04;0.87;;;0.20;;
13349;SDS011;6744;53.190;6.576;2022-12-08T05:50:30;0.40;;;0.20;;
13349;SDS011;6744;53.190;6.576;2022-12-08T05:52:55;0.80;;;0.30;;
13349;SDS011;6744;53.190;6.576;2022-12-08T05:55:21;0.40;;;0.20;;
13349;SDS011;6744;53.190;6.576;2022-12-08T05:57:46;0.50;;;0.20;;
13349;SDS011;6744;53.190;6.576;2022-12-08T06:00:11;0.50;;;0.30;;
13349;SDS011;6744;53.190;6.576;2022-12-08T06:02:37;1.07;;;0.30;;
13349;SDS011;6744;53.190;6.576;2022-12-08T06:05:03;0.90;;;0.30;;
13349;SDS011;6744;53.190;6.576;2022-12-08T06:07:28;0.83;;;0.37;;
13349;SDS011;6744;53.190;6.576;2022-12-08T06:09:54;0.40;;;0.37;;
13349;SDS011;6744;53.190;6.576;2022-12-08T06:12:19;0.63;;;0.23;;
13349;SDS011;6744;53.190;6.576;2022-12-08T06:14:45;0.50;;;0.30;;
13349;SDS011;6744;53.190;6.576;2022-12-08T06:17:10;0.93;;;0.40;;
13349;SDS011;6744;53.190;6.576;2022-12-08T06:19:36;1.23;;;0.30;;
13349;SDS011;6744;53.190;6.576;2022-12-08T06:22:01;0.43;;;0.30;;
13349;SDS011;6744;53.190;6.576;2022-12-08T06:24:26;1.07;;;0.40;;
13349;SDS011;6744;53.190;6.576;2022-12-08T06:26:52;0.40;;;0.20;;
13349;SDS011;6744;53.190;6.576;2022-12-08T06:29:17;1.23;;;0.30;;
13349;SDS011;6744;53.190;6.576;2022-12-08T06:31:42;1.20;;;0.30;;
13349;SDS011;6744;53.190;6.576;2022-12-08T06:34:08;0.70;;;0.27;;
13349;SDS011;6744;53.190;6.576;2022-12-08T06:36:33;1.03;;;0.20;;
13349;SDS011;6744;53.190;6.576;2022-12-08T06:38:59;0.87;;;0.40;;
13349;SDS011;6744;53.190;6.576;2022-12-08T06:41:24;0.47;;;0.33;;
13349;SDS011;6744;53.190;6.576;2022-12-08T06:43:49;0.53;;;0.40;;
13349;SDS011;6744;53.190;6.576;2022-12-08T06:46:16;0.47;;;0.37;;
13349;SDS011;6744;53.190;6.576;2022-12-08T06:48:42;0.30;;;0.23;;
13349;SDS011;6744;53.190;6.576;2022-12-08T06:51:09;1.10;;;0.40;;
13349;SDS011;6744;53.190;6.576;2022-12-08T06:53:36;0.50;;;0.20;;
13349;SDS011;6744;53.190;6.576;2022-12-08T06:56:02;1.03;;;0.30;;
13349;SDS011;6744;53.190;6.576;2022-12-08T06:58:28;0.40;;;0.20;;
13349;SDS011;6744;53.190;6.576;2022-12-08T07:00:53;0.50;;;0.20;;
13349;SDS011;6744;53.190;6.576;2022-12-08T07:03:19;0.43;;;0.20;;
13349;SDS011;6744;53.190;6.576;2022-12-08T07:05:44;0.70;;;0.30;;
13349;SDS011;6744;53.190;6.576;2022-12-08T07:08:09;0.47;;;0.20;;
13349;SDS011;6744;53.190;6.576;2022-12-08T07:10:35;0.47;;;0.40;;
13349;SDS011;6744;53.190;6.576;2022-12-08T07:13:00;0.60;;;0.30;;
13349;SDS011;6744;53.190;6.576;2022-12-08T07:15:26;0.43;;;0.20;;
13349;SDS011;6744;53.190;6.576;2022-12-08T07:17:52;1.80;;;0.40;;
13349;SDS011;6744;53.190;6.576;2022-12-08T07:20:17;0.20;;;0.20;;
13349;SDS011;6744;53.190;6.576;2022-12-08T07:22:51;0.90;;;0.27;;
13349;SDS011;6744;53.190;6.576;2022-12-08T07:25:17;0.67;;;0.30;;
13349;SDS011;6744;53.190;6.576;2022-12-08T07:27:43;0.60;;;0.30;;
13349;SDS011;6744;53.190;6.576;2022-12-08T07:30:09;0.47;;;0.30;;
13349;SDS011;6744;53.190;6.576;2022-12-08T07:32:36;0.47;;;0.30;;
13349;SDS011;6744;53.190;6.576;2022-12-08T07:35:02;0.87;;;0.40;;
13349;SDS011;6744;53.190;6.576;2022-12-08T07:37:28;0.30;;;0.30;;
13349;SDS011;6744;53.190;6.576;2022-12-08T07:39:54;0.70;;;0.40;;
13349;SDS011;6744;53.190;6.576;2022-12-08T07:42:19;0.40;;;0.27;;
13349;SDS011;6744;53.190;6.576;2022-12-08T07:44:44;0.70;;;0.20;;
13349;SDS011;6744;53.190;6.576;2022-12-08T07:47:09;1.00;;;0.57;;
13349;SDS011;6744;53.190;6.576;2022-12-08T07:49:35;0.70;;;0.43;;
13349;SDS011;6744;53.190;6.576;2022-12-08T07:52:00;1.27;;;0.50;;
13349;SDS011;6744;53.190;6.576;2022-12-08T07:54:25;0.80;;;0.43;;
13349;SDS011;6744;53.190;6.576;2022-12-08T07:56:52;1.03;;;0.60;;
13349;SDS011;6744;53.190;6.576;2022-12-08T07:59:18;1.60;;;0.57;;
13349;SDS011;6744;53.190;6.576;2022-12-08T08:01:43;0.50;;;0.50;;
13349;SDS011;6744;53.190;6.576;2022-12-08T08:04:09;0.90;;;0.50;;
13349;SDS011;6744;53.190;6.576;2022-12-08T08:06:34;0.57;;;0.40;;
13349;SDS011;6744;53.190;6.576;2022-12-08T08:09:02;0.73;;;0.60;;
13349;SDS011;6744;53.190;6.576;2022-12-08T08:11:27;0.90;;;0.57;;
13349;SDS011;6744;53.190;6.576;2022-12-08T08:13:53;0.60;;;0.53;;
13349;SDS011;6744;53.190;6.576;2022-12-08T08:16:18;1.37;;;0.50;;
13349;SDS011;6744;53.190;6.576;2022-12-08T08:18:45;1.17;;;0.60;;
13349;SDS011;6744;53.190;6.576;2022-12-08T08:21:11;1.47;;;0.80;;
13349;SDS011;6744;53.190;6.576;2022-12-08T08:23:37;1.07;;;0.60;;
13349;SDS011;6744;53.190;6.576;2022-12-08T08:26:03;0.67;;;0.50;;
13349;SDS011;6744;53.190;6.576;2022-12-08T08:28:28;2.97;;;0.93;;
13349;SDS011;6744;53.190;6.576;2022-12-08T08:30:54;1.37;;;0.73;;
13349;SDS011;6744;53.190;6.576;2022-12-08T08:33:20;1.80;;;0.90;;
13349;SDS011;6744;53.190;6.576;2022-12-08T08:35:45;3.37;;;1.00;;
13349;SDS011;6744;53.190;6.576;2022-12-08T08:38:10;1.87;;;0.80;;
13349;SDS011;6744;53.190;6.576;2022-12-08T08:40:36;2.47;;;0.70;;
13349;SDS011;6744;53.190;6.576;2022-12-08T08:43:01;1.27;;;0.80;;
13349;SDS011;6744;53.190;6.576;2022-12-08T08:45:28;1.73;;;0.70;;
13349;SDS011;6744;53.190;6.576;2022-12-08T08:47:53;1.07;;;0.70;;
13349;SDS011;6744;53.190;6.576;2022-12-08T08:50:18;1.77;;;0.87;;
13349;SDS011;6744;53.190;6.576;2022-12-08T08:52:44;1.33;;;0.60;;
13349;SDS011;6744;53.190;6.576;2022-12-08T08:55:09;1.30;;;0.70;;
13349;SDS011;6744;53.190;6.576;2022-12-08T08:57:35;1.20;;;0.80;;
13349;SDS011;6744;53.190;6.576;2022-12-08T09:00:00;0.90;;;0.67;;
13349;SDS011;6744;53.190;6.576;2022-12-08T09:02:25;1.73;;;0.90;;
13349;SDS011;6744;53.190;6.576;2022-12-08T09:04:51;1.00;;;0.70;;
13349;SDS011;6744;53.190;6.576;2022-12-08T09:07:16;1.33;;;0.77;;
13349;SDS011;6744;53.190;6.576;2022-12-08T09:09:42;1.77;;;1.00;;
13349;SDS011;6744;53.190;6.576;2022-12-08T09:12:07;1.13;;;0.80;;
13349;SDS011;6744;53.190;6.576;2022-12-08T09:14:36;2.13;;;0.83;;
13349;SDS011;6744;53.190;6.576;2022-12-08T09:17:02;1.97;;;0.90;;
13349;SDS011;6744;53.190;6.576;2022-12-08T09:19:27;2.20;;;1.10;;
13349;SDS011;6744;53.190;6.576;2022-12-08T09:21:52;2.60;;;1.03;;
13349;SDS011;6744;53.190;6.576;2022-12-08T09:24:18;1.53;;;0.70;;
13349;SDS011;6744;53.190;6.576;2022-12-08T09:26:43;2.27;;;1.10;;
13349;SDS011;6744;53.190;6.576;2022-12-08T09:29:09;2.83;;;1.00;;
13349;SDS011;6744;53.190;6.576;2022-12-08T09:31:35;1.83;;;1.03;;
13349;SDS011;6744;53.190;6.576;2022-12-08T09:34:00;3.67;;;1.23;;
13349;SDS011;6744;53.190;6.576;2022-12-08T09:36:26;1.70;;;0.90;;
13349;SDS011;6744;53.190;6.576;2022-12-08T09:38:51;2.23;;;0.90;;
13349;SDS011;6744;53.190;6.576;2022-12-08T09:41:30;3.00;;;1.03;;
13349;SDS011;6744;53.190;6.576;2022-12-08T09:46:47;3.37;;;0.80;;
13349;SDS011;6744;53.190;6.576;2022-12-08T09:49:16;1.00;;;0.90;;
13349;SDS011;6744;53.190;6.576;2022-12-08T09:51:44;1.30;;;0.87;;
13349;SDS011;6744;53.190;6.576;2022-12-08T09:54:14;2.67;;;1.00;;
13349;SDS011;6744;53.190;6.576;2022-12-08T09:56:41;3.00;;;1.10;;
13349;SDS011;6744;53.190;6.576;2022-12-08T10:01:33;2.73;;;1.00;;
13349;SDS011;6744;53.190;6.576;2022-12-08T10:04:02;2.47;;;1.17;;
13349;SDS011;6744;53.190;6.576;2022-12-08T10:06:37;1.37;;;0.90;;
13349;SDS011;6744;53.190;6.576;2022-12-08T10:11:50;1.40;;;0.90;;
13349;SDS011;6744;53.190;6.576;2022-12-08T10:14:21;1.13;;;0.60;;
13349;SDS011;6744;53.190;6.576;2022-12-08T10:17:21;1.60;;;1.03;;
13349;SDS011;6744;53.190;6.576;2022-12-08T10:19:48;2.23;;;0.80;;
13349;SDS011;6744;53.190;6.576;2022-12-08T10:22:23;1.47;;;0.70;;
13349;SDS011;6744;53.190;6.576;2022-12-08T10:24:51;2.27;;;0.70;;
13349;SDS011;6744;53.190;6.576;2022-12-08T10:27:21;2.73;;;0.60;;
13349;SDS011;6744;53.190;6.576;2022-12-08T10:29:47;2.70;;;0.83;;
13349;SDS011;6744;53.190;6.576;2022-12-08T10:32:16;1.63;;;0.80;;
13349;SDS011;6744;53.190;6.576;2022-12-08T10:37:24;2.50;;;0.90;;
13349;SDS011;6744;53.190;6.576;2022-12-08T10:39:55;1.93;;;0.87;;
13349;SDS011;6744;53.190;6.576;2022-12-08T10:42:24;1.00;;;0.50;;
13349;SDS011;6744;53.190;6.576;2022-12-08T10:50:32;1.90;;;0.80;;
13349;SDS011;6744;53.190;6.576;2022-12-08T10:53:09;2.33;;;0.97;;
13349;SDS011;6744;53.190;6.576;2022-12-08T10:56:23;2.57;;;0.73;;
13349;SDS011;6744;53.190;6.576;2022-12-08T11:01:33;3.20;;;0.60;;
13349;SDS011;6744;53.190;6.576;2022-12-08T11:03:59;1.33;;;0.53;;
13349;SDS011;6744;53.190;6.576;2022-12-08T11:08:55;2.30;;;0.40;;
13349;SDS011;6744;53.190;6.576;2022-12-08T11:11:37;2.60;;;0.60;;
13349;SDS011;6744;53.190;6.576;2022-12-08T11:14:07;1.07;;;0.50;;
13349;SDS011;6744;53.190;6.576;2022-12-08T11:16:32;1.13;;;0.40;;
13349;SDS011;6744;53.190;6.576;2022-12-08T11:18:59;2.00;;;0.53;;
13349;SDS011;6744;53.190;6.576;2022-12-08T11:21:35;0.83;;;0.30;;
13349;SDS011;6744;53.190;6.576;2022-12-08T11:24:09;1.93;;;0.40;;
13349;SDS011;6744;53.190;6.576;2022-12-08T11:27:01;1.17;;;0.60;;
13349;SDS011;6744;53.190;6.576;2022-12-08T11:29:29;1.40;;;0.53;;
13349;SDS011;6744;53.190;6.576;2022-12-08T11:31:56;1.03;;;0.30;;
13349;SDS011;6744;53.190;6.576;2022-12-08T11:34:29;0.90;;;0.40;;
13349;SDS011;6744;53.190;6.576;2022-12-08T11:36:57;0.70;;;0.30;;
13349;SDS011;6744;53.190;6.576;2022-12-08T11:39:24;1.43;;;0.50;;
13349;SDS011;6744;53.190;6.576;2022-12-08T11:41:51;2.03;;;0.40;;
13349;SDS011;6744;53.190;6.576;2022-12-08T11:47:03;2.90;;;0.40;;
13349;SDS011;6744;53.190;6.576;2022-12-08T11:49:40;1.10;;;0.53;;
13349;SDS011;6744;53.190;6.576;2022-12-08T11:55:04;2.53;;;0.60;;
13349;SDS011;6744;53.190;6.576;2022-12-08T11:57:43;1.33;;;0.47;;
13349;SDS011;6744;53.190;6.576;2022-12-08T12:00:10;0.93;;;0.70;;
13349;SDS011;6744;53.190;6.576;2022-12-08T12:02:37;1.20;;;0.57;;
13349;SDS011;6744;53.190;6.576;2022-12-08T12:05:07;1.37;;;0.70;;
13349;SDS011;6744;53.190;6.576;2022-12-08T12:16:31;1.07;;;0.70;;
13349;SDS011;6744;53.190;6.576;2022-12-08T12:19:14;2.20;;;1.00;;
13349;SDS011;6744;53.190;6.576;2022-12-08T12:21:42;1.03;;;0.77;;
13349;SDS011;6744;53.190;6.576;2022-12-08T12:26:53;1.37;;;0.50;;
13349;SDS011;6744;53.190;6.576;2022-12-08T12:29:20;2.07;;;0.40;;
13349;SDS011;6744;53.190;6.576;2022-12-08T12:31:48;0.80;;;0.23;;
13349;SDS011;6744;53.190;6.576;2022-12-08T12:34:18;0.83;;;0.20;;
13349;SDS011;6744;53.190;6.576;2022-12-08T12:39:12;0.23;;;0.17;;
13349;SDS011;6744;53.190;6.576;2022-12-08T12:41:49;0.70;;;0.20;;
13349;SDS011;6744;53.190;6.576;2022-12-08T12:46:54;0.90;;;0.30;;
13349;SDS011;6744;53.190;6.576;2022-12-08T12:54:42;1.07;;;0.20;;
13349;SDS011;6744;53.190;6.576;2022-12-08T12:57:34;0.37;;;0.20;;
13349;SDS011;6744;53.190;6.576;2022-12-08T13:02:30;1.63;;;0.33;;
13349;SDS011;6744;53.190;6.576;2022-12-08T13:04:58;1.53;;;0.30;;
13349;SDS011;6744;53.190;6.576;2022-12-08T13:07:33;0.57;;;0.30;;
13349;SDS011;6744;53.190;6.576;2022-12-08T13:10:06;1.23;;;0.30;;
13349;SDS011;6744;53.190;6.576;2022-12-08T13:12:38;0.73;;;0.30;;
13349;SDS011;6744;53.190;6.576;2022-12-08T13:15:04;0.60;;;0.20;;
13349;SDS011;6744;53.190;6.576;2022-12-08T13:17:34;1.23;;;0.40;;
13349;SDS011;6744;53.190;6.576;2022-12-08T13:20:02;0.40;;;0.30;;
13349;SDS011;6744;53.190;6.576;2022-12-08T13:30:45;0.90;;;0.30;;
13349;SDS011;6744;53.190;6.576;2022-12-08T13:33:16;0.63;;;0.27;;
13349;SDS011;6744;53.190;6.576;2022-12-08T13:35:46;0.30;;;0.27;;
13349;SDS011;6744;53.190;6.576;2022-12-08T13:38:15;1.20;;;0.30;;
13349;SDS011;6744;53.190;6.576;2022-12-08T13:40:43;0.73;;;0.40;;
13349;SDS011;6744;53.190;6.576;2022-12-08T13:43:25;1.03;;;0.50;;
13349;SDS011;6744;53.190;6.576;2022-12-08T13:45:54;1.07;;;0.60;;
13349;SDS011;6744;53.190;6.576;2022-12-08T13:48:24;1.80;;;1.00;;
13349;SDS011;6744;53.190;6.576;2022-12-08T13:50:54;1.00;;;0.57;;
13349;SDS011;6744;53.190;6.576;2022-12-08T13:53:23;2.33;;;0.50;;
13349;SDS011;6744;53.190;6.576;2022-12-08T13:55:54;0.83;;;0.53;;
13349;SDS011;6744;53.190;6.576;2022-12-08T13:58:25;0.40;;;0.20;;
13349;SDS011;6744;53.190;6.576;2022-12-08T14:03:46;1.33;;;0.30;;
13349;SDS011;6744;53.190;6.576;2022-12-08T14:06:18;0.40;;;0.30;;
13349;SDS011;6744;53.190;6.576;2022-12-08T14:08:50;0.30;;;0.23;;
13349;SDS011;6744;53.190;6.576;2022-12-08T14:11:21;0.63;;;0.40;;
13349;SDS011;6744;53.190;6.576;2022-12-08T14:14:07;0.63;;;0.40;;
13349;SDS011;6744;53.190;6.576;2022-12-08T14:16:53;0.87;;;0.30;;
13349;SDS011;6744;53.190;6.576;2022-12-08T14:19:22;0.53;;;0.30;;
13349;SDS011;6744;53.190;6.576;2022-12-08T14:21:58;0.83;;;0.50;;
13349;SDS011;6744;53.190;6.576;2022-12-08T14:24:25;1.80;;;0.20;;
13349;SDS011;6744;53.190;6.576;2022-12-08T14:26:53;0.30;;;0.23;;
13349;SDS011;6744;53.190;6.576;2022-12-08T14:29:29;0.70;;;0.30;;
13349;SDS011;6744;53.190;6.576;2022-12-08T14:32:03;0.37;;;0.27;;
13349;SDS011;6744;53.190;6.576;2022-12-08T14:34:33;0.67;;;0.33;;
13349;SDS011;6744;53.190;6.576;2022-12-08T14:37:04;0.77;;;0.30;;
13349;SDS011;6744;53.190;6.576;2022-12-08T14:39:32;0.50;;;0.37;;
13349;SDS011;6744;53.190;6.576;2022-12-08T14:41:58;0.70;;;0.40;;
13349;SDS011;6744;53.190;6.576;2022-12-08T14:44:24;0.50;;;0.30;;
13349;SDS011;6744;53.190;6.576;2022-12-08T14:47:06;0.80;;;0.30;;
13349;SDS011;6744;53.190;6.576;2022-12-08T14:49:33;0.80;;;0.33;;
13349;SDS011;6744;53.190;6.576;2022-12-08T14:52:01;1.13;;;0.60;;
13349;SDS011;6744;53.190;6.576;2022-12-08T14:54:28;1.80;;;0.67;;
13349;SDS011;6744;53.190;6.576;2022-12-08T14:56:54;0.33;;;0.30;;
13349;SDS011;6744;53.190;6.576;2022-12-08T14:59:21;0.60;;;0.40;;
13349;SDS011;6744;53.190;6.576;2022-12-08T15:01:51;0.30;;;0.30;;
13349;SDS011;6744;53.190;6.576;2022-12-08T15:06:59;0.60;;;0.40;;
13349;SDS011;6744;53.190;6.576;2022-12-08T15:10:31;0.70;;;0.33;;
13349;SDS011;6744;53.190;6.576;2022-12-08T15:12:32;0.40;;;0.40;;
13349;SDS011;6744;53.190;6.576;2022-12-08T15:15:10;0.93;;;0.50;;
13349;SDS011;6744;53.190;6.576;2022-12-08T15:20:04;1.43;;;1.30;;
13349;SDS011;6744;53.190;6.576;2022-12-08T15:22:30;2.80;;;2.60;;
13349;SDS011;6744;53.190;6.576;2022-12-08T15:24:56;3.57;;;2.90;;
13349;SDS011;6744;53.190;6.576;2022-12-08T15:27:22;3.40;;;3.10;;
13349;SDS011;6744;53.190;6.576;2022-12-08T15:29:48;4.10;;;3.70;;
13349;SDS011;6744;53.190;6.576;2022-12-08T15:32:18;2.87;;;2.63;;
13349;SDS011;6744;53.190;6.576;2022-12-08T15:34:44;3.20;;;2.90;;
13349;SDS011;6744;53.190;6.576;2022-12-08T15:37:17;2.80;;;2.50;;
13349;SDS011;6744;53.190;6.576;2022-12-08T15:39:45;2.53;;;2.20;;
13349;SDS011;6744;53.190;6.576;2022-12-08T15:42:10;2.60;;;2.40;;
13349;SDS011;6744;53.190;6.576;2022-12-08T15:44:37;2.40;;;2.13;;
13349;SDS011;6744;53.190;6.576;2022-12-08T15:47:02;2.00;;;1.80;;
13349;SDS011;6744;53.190;6.576;2022-12-08T15:49:28;1.80;;;1.70;;
13349;SDS011;6744;53.190;6.576;2022-12-08T15:51:53;1.40;;;1.30;;
13349;SDS011;6744;53.190;6.576;2022-12-08T15:54:18;1.50;;;1.30;;
13349;SDS011;6744;53.190;6.576;2022-12-08T15:57:02;1.83;;;1.50;;
13349;SDS011;6744;53.190;6.576;2022-12-08T15:59:27;2.67;;;1.50;;
13349;SDS011;6744;53.190;6.576;2022-12-08T16:01:53;2.27;;;1.73;;
13349;SDS011;6744;53.190;6.576;2022-12-08T16:04:19;2.50;;;2.20;;
13349;SDS011;6744;53.190;6.576;2022-12-08T16:06:49;3.53;;;2.73;;
13349;SDS011;6744;53.190;6.576;2022-12-08T16:09:17;4.63;;;3.00;;
13349;SDS011;6744;53.190;6.576;2022-12-08T16:11:44;4.07;;;3.20;;
13349;SDS011;6744;53.190;6.576;2022-12-08T16:14:28;3.70;;;3.10;;
13349;SDS011;6744;53.190;6.576;2022-12-08T16:16:54;4.00;;;3.10;;
13349;SDS011;6744;53.190;6.576;2022-12-08T16:19:19;2.90;;;2.50;;
13349;SDS011;6744;53.190;6.576;2022-12-08T16:21:44;2.90;;;2.30;;
13349;SDS011;6744;53.190;6.576;2022-12-08T16:24:09;2.37;;;1.90;;
13349;SDS011;6744;53.190;6.576;2022-12-08T16:26:35;2.37;;;1.97;;
13349;SDS011;6744;53.190;6.576;2022-12-08T16:29:00;1.40;;;1.30;;
13349;SDS011;6744;53.190;6.576;2022-12-08T16:31:26;1.77;;;1.40;;
13349;SDS011;6744;53.190;6.576;2022-12-08T16:33:51;2.43;;;1.30;;
13349;SDS011;6744;53.190;6.576;2022-12-08T16:36:16;1.83;;;1.47;;
13349;SDS011;6744;53.190;6.576;2022-12-08T16:38:42;2.17;;;1.80;;
13349;SDS011;6744;53.190;6.576;2022-12-08T16:41:11;3.07;;;1.80;;
13349;SDS011;6744;53.190;6.576;2022-12-08T16:43:59;2.57;;;1.90;;